Time;durP1;ratioP1;P1;durP2;ratioP2;P2;SDS_P1;SDS_P2;PMS_P1;PMS_P2;Temp;Humidity;BMP_temperature;BMP_pressure;BME280_temperature;BME280_humidity;BME280_pressure;Samples;Min_cycle;Max_cycle;Signal;HPM_P1;HPM_P2
2022/05/04 00:01:46;;;;;;;3.17;2.57;;;;;;;15.50;59.78;99910.03;4335727;33;33095;-88
2022/05/04 00:04:15;;;;;;;6.78;3.30;;;;;;;15.49;59.62;99918.97;4347722;33;33839;-88
2022/05/04 00:06:43;;;;;;;3.35;2.72;;;;;;;15.45;59.66;99917.44;4347483;33;34016;-88
2022/05/04 00:09:11;;;;;;;4.82;2.92;;;;;;;15.40;59.59;99908.91;4335579;33;32813;-88
2022/05/04 00:11:42;;;;;;;3.22;2.65;;;;;;;15.26;60.23;99914.22;4348046;33;32943;-89
2022/05/04 00:14:10;;;;;;;5.82;3.37;;;;;;;15.07;60.37;99907.34;4347798;32;33601;-89
2022/05/04 00:16:48;;;;;;;3.53;3.08;;;;;;;15.19;59.88;99916.41;4335615;33;33639;-89
2022/05/04 00:19:16;;;;;;;3.03;2.72;;;;;;;15.14;60.12;99917.59;4335722;33;33101;-88
2022/05/04 00:21:44;;;;;;;4.22;3.67;;;;;;;15.27;59.40;99913.25;4347912;32;34092;-87
2022/05/04 00:24:12;;;;;;;3.15;2.78;;;;;;;15.04;60.19;99912.84;4347574;33;33732;-87
2022/05/04 00:26:40;;;;;;;5.18;2.80;;;;;;;14.94;60.40;99911.69;4347510;33;34673;-87
2022/05/04 00:29:08;;;;;;;3.55;2.42;;;;;;;15.19;59.95;99910.19;4347692;33;33393;-87
2022/05/04 00:31:35;;;;;;;4.03;3.00;;;;;;;14.99;60.48;99916.72;4334973;33;32665;-86
2022/05/04 00:34:03;;;;;;;3.87;3.17;;;;;;;14.79;61.40;99917.91;4347226;33;33214;-87
2022/05/04 00:36:33;;;;;;;3.65;3.22;;;;;;;14.66;61.69;99919.59;4347407;33;34391;-86
2022/05/04 00:39:03;;;;;;;2.95;2.70;;;;;;;14.78;61.30;99925.03;4334929;33;33808;-87
2022/05/04 00:41:32;;;;;;;6.55;2.58;;;;;;;14.81;61.05;99922.22;4347045;33;33473;-87
2022/05/04 00:43:59;;;;;;;5.37;3.25;;;;;;;14.73;60.90;99929.78;4332900;33;33166;-87
2022/05/04 00:46:27;;;;;;;2.87;2.53;;;;;;;14.70;60.68;99918.47;4334601;33;33755;-87
2022/05/04 00:48:56;;;;;;;3.95;3.42;;;;;;;14.75;60.41;99925.22;4346920;33;34124;-87
2022/05/04 00:51:24;;;;;;;4.20;2.85;;;;;;;14.57;61.10;99923.63;4346620;33;34196;-87
2022/05/04 00:53:52;;;;;;;5.40;2.90;;;;;;;14.47;61.62;99928.59;4334442;33;33531;-87
2022/05/04 00:56:22;;;;;;;3.00;2.70;;;;;;;14.62;61.11;99926.88;4347259;33;35180;-87
2022/05/04 00:58:56;;;;;;;3.30;3.00;;;;;;;14.62;60.92;99920.69;4330911;33;32720;-86
2022/05/04 01:01:26;;;;;;;7.87;3.67;;;;;;;14.65;60.60;99920.53;4346532;32;32969;-85
2022/05/04 01:03:59;;;;;;;3.60;3.00;;;;;;;14.50;61.16;99928.47;4334521;33;32902;-86
2022/05/04 01:06:27;;;;;;;5.53;3.20;;;;;;;14.48;61.15;99924.16;4333626;33;33832;-86
2022/05/04 01:08:55;;;;;;;8.65;3.28;;;;;;;14.37;61.29;99922.09;4334235;33;33568;-86
2022/05/04 01:11:23;;;;;;;4.68;3.12;;;;;;;14.26;61.28;99928.03;4345950;33;33132;-86
2022/05/04 01:14:11;;;;;;;6.47;3.45;;;;;;;14.25;61.09;99920.16;4345643;33;34267;-86
2022/05/04 01:16:42;;;;;;;4.28;2.80;;;;;;;14.33;61.06;99934.69;4345888;33;33417;-86
2022/05/04 01:19:11;;;;;;;6.62;3.45;;;;;;;14.25;61.02;99917.50;4333321;33;33327;-86
2022/05/04 01:21:39;;;;;;;4.10;3.10;;;;;;;14.29;60.81;99924.31;4316658;33;32837;-86
2022/05/04 01:24:08;;;;;;;3.53;3.22;;;;;;;14.33;60.62;99915.25;4345020;33;33376;-86
2022/05/04 01:26:36;;;;;;;4.15;3.15;;;;;;;14.05;61.55;99916.84;4345634;33;34056;-86
2022/05/04 01:29:04;;;;;;;5.78;3.20;;;;;;;14.14;61.48;99918.09;4333135;33;33840;-86
2022/05/04 01:31:32;;;;;;;3.55;2.80;;;;;;;14.12;61.35;99917.34;4345659;33;33043;-86
2022/05/04 01:34:01;;;;;;;4.10;3.12;;;;;;;13.94;61.73;99921.00;4346089;33;33646;-86
2022/05/04 01:36:29;;;;;;;3.58;3.05;;;;;;;14.01;61.42;99925.91;4346045;33;33923;-86
2022/05/04 01:38:57;;;;;;;4.22;3.12;;;;;;;13.70;62.11;99921.41;4344567;33;34358;-88
2022/05/04 01:44:12;;;;;;;4.30;3.53;;;;;;;13.96;61.41;99927.13;4343549;33;100524;-88
2022/05/04 01:46:41;;;;;;;3.92;3.15;;;;;;;13.91;61.45;99924.72;4334517;33;33601;-88
2022/05/04 01:49:09;;;;;;;3.10;2.80;;;;;;;13.70;62.36;99925.87;4334296;33;33106;-88
2022/05/04 01:51:37;;;;;;;3.33;3.00;;;;;;;13.73;62.08;99920.41;4334089;33;32867;-88
2022/05/04 01:54:05;;;;;;;4.62;3.37;;;;;;;13.79;61.75;99925.37;4345846;33;32561;-88
2022/05/04 01:56:33;;;;;;;7.28;3.05;;;;;;;13.99;60.94;99924.25;4346826;33;32833;-87
2022/05/04 01:59:03;;;;;;;3.72;3.35;;;;;;;13.51;62.50;99915.41;4334905;33;32496;-87
2022/05/04 02:01:31;;;;;;;3.83;3.20;;;;;;;13.63;62.24;99920.06;4332691;33;33326;-87
2022/05/04 02:04:00;;;;;;;3.45;2.97;;;;;;;13.50;62.14;99917.19;4346103;33;34082;-87
2022/05/04 02:06:27;;;;;;;4.62;3.22;;;;;;;13.60;61.71;99920.22;4334597;33;33105;-87
2022/05/04 02:08:57;;;;;;;3.03;2.72;;;;;;;13.51;61.87;99913.59;4347599;32;33487;-88
2022/05/04 02:11:25;;;;;;;4.50;3.30;;;;;;;13.50;62.15;99922.50;4347811;33;32392;-88
2022/05/04 02:13:52;;;;;;;3.33;3.03;;;;;;;13.34;62.50;99913.66;4346782;33;33922;-90
2022/05/04 02:16:21;;;;;;;5.10;3.08;;;;;;;13.23;63.00;99919.53;4347695;33;34317;-90
2022/05/04 02:19:10;;;;;;;4.97;3.22;;;;;;;13.33;62.71;99915.44;4336061;32;33763;-90
2022/05/04 02:21:58;;;;;;;4.07;2.85;;;;;;;13.51;61.94;99910.94;4338057;33;34131;-90
2022/05/04 02:24:28;;;;;;;3.70;3.03;;;;;;;13.36;62.23;99922.38;4346545;33;34158;-90
2022/05/04 02:26:57;;;;;;;4.43;3.12;;;;;;;13.37;62.12;99917.94;4321975;33;32781;-90
2022/05/04 02:29:41;;;;;;;4.25;3.05;;;;;;;13.40;61.74;99915.97;4326477;33;32326;-89
2022/05/04 02:32:09;;;;;;;3.90;3.42;;;;;;;13.11;62.76;99919.28;4345192;33;33105;-89
2022/05/04 02:40:12;;;;;;;5.50;2.70;;;;;;;13.32;61.68;99928.78;4345931;33;33102;-89
2022/05/04 02:42:40;;;;;;;5.93;3.87;;;;;;;13.12;61.74;99934.25;4334273;33;35126;-89
2022/05/04 02:45:08;;;;;;;4.00;3.15;;;;;;;13.06;61.88;99940.75;4333628;33;33766;-89
2022/05/04 02:47:38;;;;;;;4.65;3.53;;;;;;;13.08;61.77;99938.84;4346693;33;33433;-89
2022/05/04 02:50:10;;;;;;;4.55;3.28;;;;;;;13.14;61.55;99935.88;4346710;33;32915;-88
2022/05/04 02:52:38;;;;;;;3.50;3.12;;;;;;;13.00;61.80;99936.59;4333551;33;33365;-89
2022/05/04 02:55:07;;;;;;;4.37;3.70;;;;;;;13.02;61.93;99936.53;4322885;33;32582;-89
2022/05/04 02:57:45;;;;;;;3.83;3.03;;;;;;;13.01;62.14;99932.16;4336245;33;33385;-88
2022/05/04 03:00:14;;;;;;;6.12;3.62;;;;;;;12.91;62.79;99933.56;4346335;33;32942;-88
2022/05/04 03:02:43;;;;;;;6.97;3.75;;;;;;;12.98;62.38;99938.47;4345794;33;31665;-87
2022/05/04 03:05:18;;;;;;;3.78;3.33;;;;;;;12.84;62.63;99935.66;4341118;33;33854;-87
2022/05/04 03:07:47;;;;;;;10.02;4.32;;;;;;;12.95;62.25;99937.75;4333423;33;34007;-88
2022/05/04 03:10:15;;;;;;;3.95;3.22;;;;;;;12.91;62.13;99931.75;4331409;33;33679;-88
2022/05/04 03:12:44;;;;;;;4.22;3.30;;;;;;;12.82;62.25;99927.81;4334160;33;32806;-87
2022/05/04 03:15:12;;;;;;;4.57;3.42;;;;;;;12.75;62.69;99933.47;4345234;32;33030;-88
2022/05/04 03:17:40;;;;;;;4.22;3.50;;;;;;;12.65;63.20;99934.88;4352393;32;33667;-88
2022/05/04 03:20:11;;;;;;;5.00;3.67;;;;;;;12.69;63.10;99936.44;4348911;32;33799;-88
2022/05/04 03:22:40;;;;;;;5.45;3.72;;;;;;;12.68;63.19;99938.25;4348589;32;32905;-88
2022/05/04 03:25:09;;;;;;;3.62;3.33;;;;;;;12.72;63.09;99937.16;4335888;32;33869;-88
2022/05/04 03:27:37;;;;;;;8.32;4.32;;;;;;;12.72;62.74;99937.16;4329178;32;33101;-88
2022/05/04 03:30:06;;;;;;;6.05;3.62;;;;;;;12.38;63.24;99937.94;4336180;32;33727;-88
2022/05/04 03:32:34;;;;;;;4.87;4.10;;;;;;;12.57;62.62;99946.69;4349702;32;34045;-88
2022/05/04 03:35:02;;;;;;;4.80;3.90;;;;;;;12.60;62.47;99947.50;4348783;32;32732;-88
2022/05/04 03:37:31;;;;;;;5.45;4.43;;;;;;;12.64;62.65;99951.72;4349300;32;34464;-88
2022/05/04 03:40:03;;;;;;;5.72;4.10;;;;;;;12.59;63.01;99961.69;4335478;32;33077;-87
2022/05/04 03:42:33;;;;;;;4.30;3.90;;;;;;;12.51;63.41;99954.09;4335795;32;32844;-87
2022/05/04 03:45:00;;;;;;;4.62;3.72;;;;;;;12.41;64.09;99956.34;4349290;32;33539;-87
2022/05/04 03:47:29;;;;;;;6.30;4.47;;;;;;;12.52;63.58;99964.63;4336492;32;32798;-88
2022/05/04 03:49:57;;;;;;;7.57;3.92;;;;;;;12.46;63.71;99958.78;4349521;32;33586;-88
2022/05/04 03:52:25;;;;;;;4.72;3.55;;;;;;;12.61;63.27;99960.66;4347194;32;33022;-88
2022/05/04 03:54:53;;;;;;;4.85;3.90;;;;;;;12.53;63.83;99961.06;4348910;32;34523;-87
2022/05/04 03:57:23;;;;;;;5.15;3.75;;;;;;;12.65;63.34;99956.06;4330781;32;33061;-88
2022/05/04 03:59:51;;;;;;;6.37;4.12;;;;;;;12.64;63.49;99959.66;4348961;32;34143;-89
2022/05/04 04:02:20;;;;;;;4.90;3.62;;;;;;;12.83;62.94;99957.81;4349525;32;32163;-90
2022/05/04 04:04:49;;;;;;;5.87;4.55;;;;;;;12.83;62.80;99968.41;4324330;32;33701;-88
2022/05/04 04:07:18;;;;;;;4.93;3.47;;;;;;;12.86;62.65;99959.44;4336683;32;33020;-88
2022/05/04 04:09:46;;;;;;;6.65;4.35;;;;;;;12.92;62.70;99965.28;4335842;32;32632;-88
2022/05/04 04:12:16;;;;;;;10.57;4.18;;;;;;;13.36;61.61;99972.78;4347825;32;33433;-88
2022/05/04 04:14:44;;;;;;;6.47;4.20;;;;;;;12.86;63.35;99968.22;4348829;32;35479;-88
2022/05/04 04:17:13;;;;;;;5.00;3.83;;;;;;;12.49;64.34;99967.44;4346416;32;33309;-88
2022/05/04 04:19:42;;;;;;;5.65;4.03;;;;;;;12.63;63.91;99963.22;4340080;32;34108;-86
2022/05/04 04:22:11;;;;;;;10.38;4.75;;;;;;;12.79;63.67;99970.34;4358323;32;33067;-87
2022/05/04 04:24:39;;;;;;;6.85;4.75;;;;;;;12.71;64.18;99979.59;4334560;33;34723;-88
2022/05/04 04:27:08;;;;;;;5.10;4.10;;;;;;;12.77;63.98;99977.53;4331454;32;33936;-87
2022/05/04 04:29:40;;;;;;;7.07;4.85;;;;;;;12.81;63.98;99981.72;4344706;32;34401;-87
2022/05/04 04:32:09;;;;;;;5.40;4.28;;;;;;;12.86;63.80;99983.28;4346228;32;33172;-87
2022/05/04 04:34:37;;;;;;;5.37;4.55;;;;;;;12.85;63.86;99978.91;4335268;32;33039;-87
2022/05/04 04:37:04;;;;;;;6.80;4.12;;;;;;;12.94;63.77;99983.75;4333531;32;33488;-87
2022/05/04 04:39:34;;;;;;;5.80;4.28;;;;;;;12.96;63.90;99980.13;4348023;32;33292;-87
2022/05/04 04:42:04;;;;;;;6.50;4.70;;;;;;;13.15;63.34;99981.78;4347747;32;33455;-86
2022/05/04 04:44:36;;;;;;;9.43;4.50;;;;;;;13.00;64.04;99979.00;4345268;32;33792;-86
2022/05/04 04:47:04;;;;;;;6.62;4.70;;;;;;;13.20;63.75;99993.06;4348259;32;34711;-88
2022/05/04 04:49:33;;;;;;;6.80;5.62;;;;;;;13.31;63.71;99988.06;4335720;32;33107;-89
2022/05/04 04:52:02;;;;;;;6.70;5.15;;;;;;;13.45;63.59;99984.72;4347393;32;32232;-88
2022/05/04 04:54:33;;;;;;;6.37;5.05;;;;;;;13.90;62.50;99976.06;4350488;32;33357;-89
2022/05/04 04:57:08;;;;;;;;;;;;;;;13.65;63.87;99987.16;4337948;32;32657;-89
2022/05/04 04:59:36;;;;;;;14.65;4.85;;;;;;;13.78;64.24;99979.41;4350103;32;34768;-89
2022/05/04 05:02:05;;;;;;;8.43;5.07;;;;;;;14.22;62.89;99995.53;4349343;32;33029;-89
2022/05/04 05:04:32;;;;;;;10.07;4.97;;;;;;;14.33;62.73;99985.16;4335712;32;33269;-87
2022/05/04 05:07:00;;;;;;;6.00;5.30;;;;;;;14.11;63.96;99979.34;4336907;32;32849;-88
2022/05/04 05:09:31;;;;;;;6.50;4.50;;;;;;;14.50;63.93;99980.75;4359127;32;33953;-88
2022/05/04 05:12:03;;;;;;;6.20;4.87;;;;;;;14.69;63.50;99993.84;4359573;32;33049;-88
2022/05/04 05:17:26;;;;;;;8.20;4.75;;;;;;;15.13;63.20;99990.38;4348869;32;33610;-89
2022/05/04 05:20:03;;;;;;;6.72;4.03;;;;;;;15.09;62.42;99995.00;4348867;32;34454;-88
2022/05/04 05:22:31;;;;;;;9.82;5.53;;;;;;;14.86;62.91;99999.03;4349268;32;33436;-90
2022/05/04 05:25:02;;;;;;;5.35;4.85;;;;;;;15.46;61.40;99996.31;4329058;32;34338;-88
2022/05/04 05:27:35;;;;;;;6.82;4.80;;;;;;;15.44;61.09;100000.91;4346749;32;32972;-88
2022/05/04 05:30:06;;;;;;;8.00;5.43;;;;;;;15.86;60.57;99988.59;4336940;32;33087;-88
2022/05/04 05:32:33;;;;;;;6.72;4.78;;;;;;;16.12;59.09;99987.78;4360422;32;32158;-86
2022/05/04 05:35:02;;;;;;;5.25;4.60;;;;;;;15.96;59.94;99994.19;4346669;32;33306;-88
2022/05/04 05:37:33;;;;;;;5.50;4.97;;;;;;;16.13;59.91;99986.81;4348677;32;34003;-87
2022/05/04 05:40:02;;;;;;;5.57;4.95;;;;;;;16.06;60.38;99996.19;4343823;32;32829;-87
2022/05/04 05:42:30;;;;;;;7.12;5.05;;;;;;;16.51;59.47;99983.50;4334808;32;31938;-86
2022/05/04 05:45:00;;;;;;;6.72;5.07;;;;;;;16.71;58.72;99990.22;4348591;32;33884;-86
2022/05/04 05:47:35;;;;;;;5.97;4.78;;;;;;;16.79;58.02;99987.91;4336948;32;35875;-87
2022/05/04 05:50:04;;;;;;;5.47;4.97;;;;;;;16.92;58.02;99989.78;4348296;32;33861;-87
2022/05/04 05:52:32;;;;;;;6.75;4.93;;;;;;;16.61;58.44;99987.28;4348601;32;33510;-87
2022/05/04 05:55:00;;;;;;;6.82;4.53;;;;;;;16.96;58.63;99986.78;4348868;32;33589;-87
2022/05/04 05:57:29;;;;;;;5.40;4.82;;;;;;;16.96;58.62;99992.13;4360057;32;33638;-87
2022/05/04 06:00:01;;;;;;;8.90;5.25;;;;;;;17.08;58.74;99993.94;4324594;32;33864;-87
2022/05/04 06:02:38;;;;;;;9.82;5.40;;;;;;;17.37;58.23;99993.78;4348236;32;33783;-86
2022/05/04 06:05:07;;;;;;;6.57;5.57;;;;;;;17.43;58.34;99989.88;4334839;32;33844;-87
2022/05/04 06:07:37;;;;;;;8.10;5.72;;;;;;;17.36;58.02;99994.75;4335480;32;33294;-86
2022/05/04 06:10:08;;;;;;;13.18;5.75;;;;;;;17.34;57.59;100002.03;4336171;32;34563;-87
2022/05/04 06:12:38;;;;;;;7.43;5.43;;;;;;;17.38;57.14;100006.19;4346372;32;32223;-86
2022/05/04 06:15:08;;;;;;;12.55;4.93;;;;;;;17.28;57.41;100005.97;4348004;32;33380;-87
2022/05/04 06:17:37;;;;;;;5.93;4.45;;;;;;;17.38;58.61;100016.87;4346575;32;32740;-87
2022/05/04 06:20:07;;;;;;;7.30;5.82;;;;;;;17.59;57.52;100014.53;4359985;32;32328;-87
2022/05/04 06:22:40;;;;;;;15.38;5.75;;;;;;;17.38;57.94;100011.53;4318643;32;32366;-87
2022/05/04 06:25:10;;;;;;;10.82;5.80;;;;;;;17.65;58.48;100012.28;4336186;32;34448;-87
2022/05/04 06:27:39;;;;;;;9.00;5.32;;;;;;;17.96;57.47;100007.50;4345024;32;33583;-87
2022/05/04 06:35:46;;;;;;;8.90;5.18;;;;;;;18.79;55.25;100006.84;4336783;32;34147;-87
2022/05/04 06:38:15;;;;;;;8.38;5.07;;;;;;;19.00;53.82;100004.41;4347906;32;32644;-87
2022/05/04 06:40:43;;;;;;;6.25;5.43;;;;;;;19.14;53.25;100007.72;4335100;32;33741;-87
2022/05/04 06:43:12;;;;;;;8.45;5.50;;;;;;;19.36;53.20;100006.06;4335154;32;33319;-87
2022/05/04 06:45:43;;;;;;;9.77;5.45;;;;;;;19.64;49.94;100005.66;4335679;32;34265;-87
2022/05/04 06:48:13;;;;;;;8.88;4.82;;;;;;;19.57;50.17;100007.09;4323974;32;33226;-87
2022/05/04 06:50:42;;;;;;;6.50;4.47;;;;;;;19.55;49.15;100006.34;4337420;32;33825;-88
2022/05/04 06:53:11;;;;;;;4.95;4.22;;;;;;;19.73;50.75;100001.44;4353858;32;32211;-88
2022/05/04 06:55:39;;;;;;;6.10;4.82;;;;;;;20.04;49.06;100002.53;4349427;32;32327;-87
2022/05/04 06:58:07;;;;;;;5.85;4.03;;;;;;;20.28;47.95;100005.09;4349525;32;34701;-88
2022/05/04 07:00:35;;;;;;;5.10;3.35;;;;;;;20.09;50.83;100005.72;4337130;32;33254;-88
2022/05/04 07:03:10;;;;;;;7.22;3.42;;;;;;;20.37;49.68;100004.34;4349997;32;32998;-88
2022/05/04 07:05:42;;;;;;;4.78;3.20;;;;;;;20.74;45.45;99998.66;4359988;32;33567;-87
2022/05/04 07:08:10;;;;;;;3.10;2.80;;;;;;;20.70;45.40;99994.53;4350328;32;34032;-88
2022/05/04 07:10:38;;;;;;;3.45;3.08;;;;;;;20.49;45.86;99997.12;4350495;32;33691;-88
2022/05/04 07:17:06;;;;;;;6.15;3.20;;;;;;;20.90;45.18;99984.81;4363392;32;33546;-88
2022/05/04 07:19:35;;;;;;;3.92;2.78;;;;;;;20.96;45.14;99995.03;4349708;32;32948;-87
2022/05/04 07:22:06;;;;;;;7.43;2.80;;;;;;;20.67;45.82;99987.59;4327565;32;33446;-88
2022/05/04 07:24:35;;;;;;;3.15;2.72;;;;;;;20.94;44.97;99994.34;4349858;32;33502;-88
2022/05/04 07:27:44;;;;;;;4.45;2.83;;;;;;;20.71;46.60;99997.09;4338032;32;32992;-88
2022/05/04 07:30:14;;;;;;;14.40;4.05;;;;;;;21.04;47.54;100003.31;4347767;32;33293;-88
2022/05/04 07:32:43;;;;;;;4.57;3.15;;;;;;;21.15;46.13;99995.19;4343125;32;32555;-87
2022/05/04 07:35:12;;;;;;;3.92;2.70;;;;;;;21.76;43.80;99999.84;4349938;32;32315;-88
2022/05/04 07:37:42;;;;;;;4.85;2.78;;;;;;;21.91;41.98;100000.34;4350264;32;32809;-87
2022/05/04 07:43:01;;;;;;;5.30;3.25;;;;;;;21.91;44.07;100003.03;4347637;32;32563;-87
2022/05/04 07:45:31;;;;;;;3.17;2.28;;;;;;;22.19;40.99;99996.97;4343741;32;32385;-88
2022/05/04 07:48:00;;;;;;;2.60;2.40;;;;;;;21.87;42.79;99997.06;4349600;32;33859;-87
2022/05/04 07:50:29;;;;;;;3.08;2.37;;;;;;;22.19;40.23;99996.97;4325964;32;34112;-87
2022/05/04 07:52:58;;;;;;;2.60;2.25;;;;;;;22.15;42.09;99995.53;4349975;32;33553;-87
2022/05/04 07:55:27;;;;;;;4.45;1.90;;;;;;;22.15;40.14;100000.91;4338018;32;32514;-88
2022/05/04 07:57:55;;;;;;;3.15;2.53;;;;;;;22.17;41.92;100007.00;4325672;32;33278;-88
2022/05/04 08:06:01;;;;;;;4.85;2.42;;;;;;;22.53;40.75;100010.06;4352149;32;33021;-87
2022/05/04 08:08:38;;;;;;;3.92;2.25;;;;;;;22.29;40.30;100007.75;4327475;32;32809;-88
2022/05/04 08:11:07;;;;;;;3.67;2.08;;;;;;;22.53;41.23;100010.06;4337594;32;33086;-88
2022/05/04 08:13:35;;;;;;;2.25;1.90;;;;;;;23.25;37.95;99996.25;4338102;32;32797;-88
2022/05/04 08:16:07;;;;;;;2.92;2.10;;;;;;;23.37;37.17;99998.81;4349931;32;32230;-87
2022/05/04 08:18:40;;;;;;;2.50;1.92;;;;;;;23.45;37.81;99998.91;4350108;32;32762;-85
2022/05/04 08:21:08;;;;;;;2.95;2.22;;;;;;;23.28;36.93;100000.50;4348319;32;32610;-87
2022/05/04 08:23:40;;;;;;;1.77;1.62;;;;;;;23.67;34.38;99995.06;4350515;32;33937;-89
2022/05/04 08:26:10;;;;;;;4.65;1.75;;;;;;;23.34;38.88;100001.78;4337907;32;33415;-88
2022/05/04 08:28:39;;;;;;;2.17;1.60;;;;;;;24.20;36.78;99994.44;4338656;32;34624;-87
2022/05/04 08:31:07;;;;;;;3.22;1.40;;;;;;;24.23;34.85;99997.69;4325540;32;33806;-89
2022/05/04 08:33:36;;;;;;;1.58;1.48;;;;;;;24.04;33.51;100002.31;4338105;32;32533;-88
2022/05/04 08:36:04;;;;;;;4.22;2.05;;;;;;;24.46;35.41;100002.72;4349887;32;32927;-89
2022/05/04 08:38:37;;;;;;;3.72;1.62;;;;;;;24.43;35.03;100001.16;4350938;32;32667;-88
2022/05/04 08:41:07;;;;;;;1.85;1.60;;;;;;;24.02;34.69;100010.53;4350375;32;33980;-88
2022/05/04 08:43:36;;;;;;;3.85;1.70;;;;;;;23.84;34.92;100007.81;4326081;32;34126;-89
2022/05/04 08:46:06;;;;;;;3.47;1.50;;;;;;;23.78;34.00;100011.06;4349991;32;32081;-87
2022/05/04 08:48:36;;;;;;;1.40;1.30;;;;;;;23.39;35.45;100004.88;4350379;32;33768;-88
2022/05/04 08:51:07;;;;;;;2.08;1.60;;;;;;;23.69;34.55;100009.25;4350429;32;34619;-88
2022/05/04 08:53:38;;;;;;;4.45;2.12;;;;;;;23.45;35.21;100015.06;4350301;32;33677;-88
2022/05/04 08:56:06;;;;;;;1.70;1.60;;;;;;;24.10;34.16;100013.37;4338059;32;34021;-88
2022/05/04 08:58:37;;;;;;;2.40;1.90;;;;;;;24.17;36.07;100003.69;4337922;32;34359;-88
2022/05/04 09:01:05;;;;;;;4.40;1.60;;;;;;;24.18;34.15;100009.94;4350136;32;33817;-88
2022/05/04 09:03:33;;;;;;;4.25;1.98;;;;;;;23.69;32.89;100007.41;4350072;32;32860;-88
2022/05/04 09:06:03;;;;;;;2.40;2.00;;;;;;;23.31;35.98;100004.75;4346933;33;34086;-88
2022/05/04 09:08:57;;;;;;;4.95;2.25;;;;;;;23.67;35.26;100012.09;4335165;33;33590;-88
2022/05/04 09:11:26;;;;;;;3.37;2.45;;;;;;;23.59;36.66;100009.22;4335101;33;33307;-89
2022/05/04 09:14:00;;;;;;;5.78;2.60;;;;;;;24.04;34.52;100011.28;4334949;33;32608;-88
2022/05/04 09:16:34;;;;;;;2.37;1.92;;;;;;;23.64;34.97;100012.41;4347450;33;32751;-88
2022/05/04 09:19:07;;;;;;;4.45;1.75;;;;;;;23.52;36.24;100013.50;4335065;33;33157;-88
2022/05/04 09:21:39;;;;;;;;;;;;;;;23.98;35.39;100009.16;4335373;33;33117;-88
2022/05/04 09:24:13;;;;;;;4.30;2.60;;;;;;;23.50;34.23;100012.81;4334697;33;34301;-88
2022/05/04 09:26:44;;;;;;;2.37;2.10;;;;;;;23.50;36.64;100010.13;4335134;33;32462;-88
2022/05/04 09:29:14;;;;;;;3.35;2.62;;;;;;;23.39;35.97;100013.81;4335155;33;33342;-89
2022/05/04 09:31:46;;;;;;;3.00;2.58;;;;;;;23.69;36.53;100010.13;4323119;33;33325;-90
2022/05/04 09:34:17;;;;;;;4.87;2.75;;;;;;;24.46;35.86;100003.56;4347691;33;33638;-91
2022/05/04 09:45:29;;;;;;;3.42;2.95;;;;;;;25.09;33.37;99994.59;4340140;32;32609;-90
2022/05/04 09:47:59;;;;;;;5.45;2.67;;;;;;;25.13;34.03;99993.28;4350239;32;32384;-91
2022/05/04 09:50:57;;;;;;;5.37;3.75;;;;;;;25.26;35.41;99996.44;4315016;33;32458;-89
2022/05/04 09:53:35;;;;;;;3.85;3.28;;;;;;;24.88;34.51;99996.75;4347246;33;33297;-89
2022/05/04 09:56:12;;;;;;;5.72;3.37;;;;;;;25.46;34.23;99980.88;4334995;33;32644;-89
2022/05/04 09:58:58;;;;;;;6.60;3.12;;;;;;;25.78;32.96;99974.88;4347199;33;33050;-88
2022/05/04 10:01:26;;;;;;;3.05;2.75;;;;;;;25.90;32.34;99975.41;4334488;33;32587;-87
2022/05/04 10:03:54;;;;;;;5.82;2.72;;;;;;;25.19;33.23;99968.34;4346881;33;33961;-87
2022/05/04 10:06:24;;;;;;;4.15;2.60;;;;;;;25.02;32.50;99978.16;4334931;32;33155;-89
2022/05/04 10:08:51;;;;;;;6.95;2.70;;;;;;;24.31;33.22;99977.19;4333045;32;32721;-87
2022/05/04 10:11:20;;;;;;;4.62;2.33;;;;;;;24.85;33.49;99972.75;4349293;32;33597;-87
2022/05/04 10:13:52;;;;;;;2.28;1.98;;;;;;;24.63;32.88;99971.34;4349402;32;32938;-87
2022/05/04 10:16:21;;;;;;;2.50;2.30;;;;;;;24.63;32.79;99971.34;4335861;33;32847;-86
2022/05/04 10:18:50;;;;;;;4.80;2.22;;;;;;;24.04;32.99;99970.81;4345777;33;32439;-86
2022/05/04 10:21:19;;;;;;;4.25;2.10;;;;;;;23.68;33.37;99976.03;4346044;33;32824;-87
2022/05/04 10:23:50;;;;;;;2.37;2.20;;;;;;;23.61;33.53;99968.69;4347846;32;34688;-87
2022/05/04 10:26:33;;;;;;;2.50;2.20;;;;;;;23.56;33.78;99965.56;4336663;33;33390;-87
2022/05/04 10:32:09;;;;;;;4.35;2.10;;;;;;;23.70;33.76;99962.44;4355453;32;33515;-87
2022/05/04 10:34:42;;;;;;;2.95;1.77;;;;;;;23.63;32.72;99966.66;4350403;32;33459;-86
2022/05/04 10:37:10;;;;;;;4.47;1.98;;;;;;;23.55;33.99;99966.53;4342007;33;34266;-87
2022/05/04 10:39:39;;;;;;;10.45;2.95;;;;;;;22.89;36.27;99973.59;4336205;33;34080;-86
2022/05/04 10:42:46;;;;;;;11.35;3.28;;;;;;;22.58;44.36;99986.28;4323910;33;33321;-85
2022/05/04 10:45:14;;;;;;;9.00;4.10;;;;;;;22.58;49.34;99986.28;4348144;33;34493;-85
2022/05/04 10:47:44;;;;;;;15.15;4.65;;;;;;;21.78;54.46;99997.88;4335746;33;32687;-86
2022/05/04 10:50:24;;;;;;;13.30;5.47;;;;;;;21.42;57.79;99999.25;4354093;32;33052;-86
2022/05/04 10:52:55;;;;;;;7.78;4.47;;;;;;;21.62;56.45;99990.31;4351071;32;32421;-86
2022/05/04 10:55:41;;;;;;;5.47;3.85;;;;;;;21.47;54.94;99983.56;4363810;32;34478;-86
2022/05/04 10:58:29;;;;;;;5.00;3.65;;;;;;;21.57;52.67;99981.78;4351083;32;33319;-86
2022/05/04 11:01:22;;;;;;;16.85;4.57;;;;;;;21.55;55.45;99991.81;4355524;32;33342;-86
2022/05/04 11:03:55;;;;;;;6.30;4.65;;;;;;;21.00;57.67;99996.50;4348125;33;33335;-86
2022/05/04 11:06:24;;;;;;;12.45;5.10;;;;;;;20.81;58.35;99988.28;4353956;32;33512;-86
2022/05/04 11:08:59;;;;;;;7.18;4.32;;;;;;;20.63;60.36;99978.06;4355258;32;34572;-92
2022/05/04 11:15:59;;;;;;;6.10;4.05;;;;;;;20.17;57.53;99979.13;4354261;33;34967;-91
2022/05/04 11:18:42;;;;;;;8.25;4.22;;;;;;;19.64;59.03;99978.87;4306864;33;33122;-93
2022/05/04 11:21:26;;;;;;;7.78;4.20;;;;;;;19.78;58.96;99980.47;4336848;33;33035;-92
2022/05/04 11:24:10;;;;;;;9.65;5.12;;;;;;;19.90;58.68;99968.81;4306377;33;33227;-92
2022/05/04 11:26:53;;;;;;;8.23;4.28;;;;;;;19.25;62.25;99968.56;4311465;33;33489;-93
2022/05/04 11:29:49;;;;;;;6.30;4.05;;;;;;;20.07;62.07;99971.94;4366201;32;33278;-91
2022/05/04 11:32:35;;;;;;;5.35;4.37;;;;;;;20.49;60.85;99970.31;4340424;32;33051;-92
2022/05/04 11:35:20;;;;;;;5.25;4.00;;;;;;;20.46;63.31;99968.72;4312403;33;32569;-92
2022/05/04 11:38:04;;;;;;;5.25;3.37;;;;;;;20.64;58.75;99969.03;4335757;33;33759;-93
2022/05/04 11:40:50;;;;;;;5.57;3.90;;;;;;;20.83;58.12;99968.38;4356170;32;33152;-93
2022/05/04 11:43:33;;;;;;;8.32;3.55;;;;;;;20.83;58.61;99964.84;4322627;33;32754;-92
2022/05/04 11:46:17;;;;;;;6.35;4.32;;;;;;;20.89;58.52;99967.03;4350459;32;32431;-92
2022/05/04 11:49:00;;;;;;;8.63;4.93;;;;;;;21.25;57.60;99964.88;4350471;32;33251;-95
2022/05/04 11:51:44;;;;;;;6.75;4.18;;;;;;;20.90;62.26;99971.41;4310516;33;32995;-94
2022/05/04 11:54:30;;;;;;;4.65;4.18;;;;;;;20.71;60.75;99962.22;4362793;32;33117;-94
2022/05/04 11:57:19;;;;;;;4.05;3.60;;;;;;;20.78;61.27;99964.38;4321400;33;32671;-96
2022/05/04 12:00:18;;;;;;;5.30;3.75;;;;;;;20.70;60.78;99965.03;4318560;33;32439;-94
2022/05/04 12:03:02;;;;;;;4.85;3.50;;;;;;;20.77;61.53;99970.72;4320636;33;33965;-92
2022/05/04 12:05:46;;;;;;;4.12;3.42;;;;;;;21.17;60.14;99969.09;4337520;33;33062;-92
2022/05/04 12:08:29;;;;;;;4.35;3.72;;;;;;;21.12;59.90;99968.59;4337216;33;33069;-92
2022/05/04 12:11:30;;;;;;;7.03;4.07;;;;;;;20.53;63.09;99981.66;4342555;33;33070;-92
2022/05/04 12:14:16;;;;;;;6.57;4.10;;;;;;;20.53;63.72;99987.88;4323421;33;33225;-89
2022/05/04 12:16:52;;;;;;;5.37;4.90;;;;;;;20.51;64.47;99992.53;4312443;33;34022;-88
2022/05/04 12:19:24;;;;;;;5.80;5.03;;;;;;;20.59;64.62;99981.13;4323364;33;32948;-89
2022/05/04 12:21:58;;;;;;;8.27;5.05;;;;;;;20.53;63.89;99987.88;4312176;33;34246;-89
2022/05/04 12:24:28;;;;;;;6.30;5.70;;;;;;;20.61;64.98;99987.25;4311578;33;33187;-89
2022/05/04 12:26:57;;;;;;;7.22;5.40;;;;;;;20.53;65.77;99987.03;4311578;33;32798;-89
2022/05/04 12:35:09;;;;;;;7.68;4.65;;;;;;;20.87;61.15;99982.38;4324937;33;33351;-89
2022/05/04 12:38:05;;;;;;;5.28;3.67;;;;;;;20.65;59.80;99970.78;4300481;33;32362;-89
2022/05/04 12:40:35;;;;;;;5.43;4.40;;;;;;;20.69;59.02;99961.47;4324025;33;34126;-89
2022/05/04 12:43:06;;;;;;;6.72;4.75;;;;;;;20.43;62.07;99970.81;4323613;33;33011;-90
2022/05/04 12:45:49;;;;;;;7.65;4.90;;;;;;;20.41;62.44;99957.53;4314657;33;32903;-89